Banner, Wyoming
Current Conditions -  °F | °C
As of 9:53 PM on Wednesday 22 Oct 2014 (Local Time) from KSHR Reporting Station
Clear Clear  
Wind Chill: -2°   Ceiling: Unl
Heat Index:   Visibility: 10mi
Dew Point: -4°   Wind: 6mph
Humidity: 67%   Direction: 200°SSW
Pressure: 30"   Gusts: NA
Location:  44.6°N, 106.87°W
Report Text: KSHR 230353Z AUTO 20005KT 10SM CLR 01/M04 A3000 RMK AO2 SLP169 T00111044 TSNO
Loading
Personal Weather Stations






























Interactive Weather Map
Tropical Storm Tracking
New forecast layout! Learn more

10-Day Weather Forecast

Advertisements
Track Severe Weather on mobile